Time;durP1;ratioP1;P1;durP2;ratioP2;P2;SDS_P1;SDS_P2;PMS_P1;PMS_P2;Temp;Humidity;BMP_temperature;BMP_pressure;BME280_temperature;BME280_humidity;BME280_pressure;Samples;Min_cycle;Max_cycle;Signal;HPM_P1;HPM_P2
2021/01/27 00:01:47;;;;;;;3.3;2;;;;;;;;;;;;;
2021/01/27 00:04:12;;;;;;;4.9;1.4;;;;;;;;;;;;;
2021/01/27 00:06:37;;;;;;;2;0.6;;;;;;;;;;;;;
2021/01/27 00:09:05;;;;;;;0.9;0.8;;;;;;;;;;;;;
2021/01/27 00:11:30;;;;;;;0.8;0.8;;;;;;;;;;;;;
2021/01/27 00:13:55;;;;;;;6;2.7;;;;;;;;;;;;;
2021/01/27 00:16:21;;;;;;;2.8;2.1;;;;;;;;;;;;;
2021/01/27 00:18:47;;;;;;;13.6;6.4;;;;;;;;;;;;;
2021/01/27 00:21:12;;;;;;;11.3;4.2;;;;;;;;;;;;;
2021/01/27 00:23:38;;;;;;;10.1;3.9;;;;;;;;;;;;;
2021/01/27 00:26:03;;;;;;;2.8;1.2;;;;;;;;;;;;;
2021/01/27 00:28:28;;;;;;;1.5;1;;;;;;;;;;;;;
2021/01/27 00:30:54;;;;;;;1;0.8;;;;;;;;;;;;;
2021/01/27 00:33:19;;;;;;;0.7;0.7;;;;;;;;;;;;;
2021/01/27 00:35:44;;;;;;;0.7;0.7;;;;;;;;;;;;;
2021/01/27 00:38:10;;;;;;;0.3;0.3;;;;;;;;;;;;;
2021/01/27 00:40:35;;;;;;;2.8;0.8;;;;;;;;;;;;;
2021/01/27 00:43:02;;;;;;;0.4;0.4;;;;;;;;;;;;;
2021/01/27 00:45:27;;;;;;;0.5;0.5;;;;;;;;;;;;;
2021/01/27 00:47:53;;;;;;;1.1;0.7;;;;;;;;;;;;;
2021/01/27 00:50:18;;;;;;;0.6;0.5;;;;;;;;;;;;;
2021/01/27 00:52:44;;;;;;;0.3;0.3;;;;;;;;;;;;;
2021/01/27 00:55:09;;;;;;;0.5;0.5;;;;;;;;;;;;;
2021/01/27 00:57:35;;;;;;;0.8;0.5;;;;;;;;;;;;;
2021/01/27 01:00:00;;;;;;;0.6;0.6;;;;;;;;;;;;;
2021/01/27 01:02:25;;;;;;;0.2;0.2;;;;;;;;;;;;;
2021/01/27 01:04:51;;;;;;;0.5;0.5;;;;;;;;;;;;;
2021/01/27 01:07:16;;;;;;;0.3;0.3;;;;;;;;;;;;;
2021/01/27 01:09:42;;;;;;;0.4;0.4;;;;;;;;;;;;;
2021/01/27 01:12:07;;;;;;;0.4;0.4;;;;;;;;;;;;;
2021/01/27 01:14:35;;;;;;;0.5;0.5;;;;;;;;;;;;;
2021/01/27 01:17:01;;;;;;;0.6;0.5;;;;;;;;;;;;;
2021/01/27 01:19:26;;;;;;;0.7;0.5;;;;;;;;;;;;;
2021/01/27 01:21:51;;;;;;;0.5;0.5;;;;;;;;;;;;;
2021/01/27 01:24:18;;;;;;;2.8;0.4;;;;;;;;;;;;;
2021/01/27 01:26:42;;;;;;;0.7;0.5;;;;;;;;;;;;;
2021/01/27 01:29:08;;;;;;;0.8;0.6;;;;;;;;;;;;;
2021/01/27 01:31:33;;;;;;;0.5;0.5;;;;;;;;;;;;;
2021/01/27 01:33:59;;;;;;;0.4;0.4;;;;;;;;;;;;;
2021/01/27 01:36:25;;;;;;;0.4;0.4;;;;;;;;;;;;;
2021/01/27 01:38:51;;;;;;;0.4;0.4;;;;;;;;;;;;;
2021/01/27 01:41:16;;;;;;;1;0.6;;;;;;;;;;;;;
2021/01/27 01:43:41;;;;;;;0.7;0.5;;;;;;;;;;;;;
2021/01/27 01:46:06;;;;;;;0.4;0.4;;;;;;;;;;;;;
2021/01/27 01:48:34;;;;;;;0.3;0.3;;;;;;;;;;;;;
2021/01/27 01:50:59;;;;;;;0.5;0.4;;;;;;;;;;;;;
2021/01/27 01:53:24;;;;;;;0.6;0.4;;;;;;;;;;;;;
2021/01/27 01:55:51;;;;;;;0.2;0.2;;;;;;;;;;;;;
2021/01/27 01:58:16;;;;;;;0.5;0.5;;;;;;;;;;;;;
2021/01/27 02:00:41;;;;;;;2;0.6;;;;;;;;;;;;;
2021/01/27 02:03:06;;;;;;;0.4;0.4;;;;;;;;;;;;;
2021/01/27 02:05:34;;;;;;;1.1;0.7;;;;;;;;;;;;;
2021/01/27 02:07:59;;;;;;;0.6;0.4;;;;;;;;;;;;;
2021/01/27 02:10:24;;;;;;;0.4;0.4;;;;;;;;;;;;;
2021/01/27 02:12:49;;;;;;;0.3;0.3;;;;;;;;;;;;;
2021/01/27 02:15:14;;;;;;;0.6;0.4;;;;;;;;;;;;;
2021/01/27 02:17:39;;;;;;;0.3;0.3;;;;;;;;;;;;;
2021/01/27 02:20:05;;;;;;;0.5;0.3;;;;;;;;;;;;;
2021/01/27 02:22:31;;;;;;;0.8;0.5;;;;;;;;;;;;;
2021/01/27 02:24:56;;;;;;;0.3;0.3;;;;;;;;;;;;;
2021/01/27 02:27:21;;;;;;;0.2;0.2;;;;;;;;;;;;;
2021/01/27 02:29:46;;;;;;;0.4;0.4;;;;;;;;;;;;;
2021/01/27 02:32:11;;;;;;;0.8;0.6;;;;;;;;;;;;;
2021/01/27 02:34:38;;;;;;;0.5;0.5;;;;;;;;;;;;;
2021/01/27 02:37:04;;;;;;;0.5;0.5;;;;;;;;;;;;;
2021/01/27 02:39:30;;;;;;;0.2;0.2;;;;;;;;;;;;;
2021/01/27 02:41:54;;;;;;;0.3;0.3;;;;;;;;;;;;;
2021/01/27 02:44:19;;;;;;;0.4;0.4;;;;;;;;;;;;;
2021/01/27 02:46:44;;;;;;;0.6;0.6;;;;;;;;;;;;;
2021/01/27 02:49:09;;;;;;;0.9;0.5;;;;;;;;;;;;;
2021/01/27 02:51:35;;;;;;;0.9;0.7;;;;;;;;;;;;;
2021/01/27 02:54:02;;;;;;;0.3;0.3;;;;;;;;;;;;;
2021/01/27 02:56:27;;;;;;;0.6;0.4;;;;;;;;;;;;;
2021/01/27 02:58:52;;;;;;;0.4;0.4;;;;;;;;;;;;;
2021/01/27 03:01:18;;;;;;;0.1;0.1;;;;;;;;;;;;;
2021/01/27 03:03:43;;;;;;;0.7;0.5;;;;;;;;;;;;;
2021/01/27 03:06:10;;;;;;;1.3;0.9;;;;;;;;;;;;;
2021/01/27 03:08:35;;;;;;;1.8;1.3;;;;;;;;;;;;;
2021/01/27 03:11:00;;;;;;;1.9;0.4;;;;;;;;;;;;;
2021/01/27 03:13:26;;;;;;;0.8;0.8;;;;;;;;;;;;;
2021/01/27 03:15:51;;;;;;;0.5;0.5;;;;;;;;;;;;;
2021/01/27 03:18:16;;;;;;;2.2;0.9;;;;;;;;;;;;;
2021/01/27 03:20:42;;;;;;;0.7;0.7;;;;;;;;;;;;;
2021/01/27 03:23:09;;;;;;;1;0.7;;;;;;;;;;;;;
2021/01/27 03:25:34;;;;;;;1.1;0.8;;;;;;;;;;;;;
2021/01/27 03:28:02;;;;;;;0.5;0.5;;;;;;;;;;;;;
2021/01/27 03:30:27;;;;;;;1;0.6;;;;;;;;;;;;;
2021/01/27 03:32:52;;;;;;;0.5;0.5;;;;;;;;;;;;;
2021/01/27 03:35:18;;;;;;;1.1;0.6;;;;;;;;;;;;;
2021/01/27 03:37:43;;;;;;;1.2;0.5;;;;;;;;;;;;;
2021/01/27 03:40:08;;;;;;;0.3;0.3;;;;;;;;;;;;;
2021/01/27 03:42:35;;;;;;;0.4;0.4;;;;;;;;;;;;;
2021/01/27 03:45:00;;;;;;;0.3;0.3;;;;;;;;;;;;;
2021/01/27 03:47:27;;;;;;;0.5;0.4;;;;;;;;;;;;;
2021/01/27 03:49:52;;;;;;;0.5;0.5;;;;;;;;;;;;;
2021/01/27 03:52:17;;;;;;;0.5;0.5;;;;;;;;;;;;;
2021/01/27 03:54:42;;;;;;;0.3;0.3;;;;;;;;;;;;;
2021/01/27 03:57:08;;;;;;;0.5;0.5;;;;;;;;;;;;;
2021/01/27 03:59:33;;;;;;;1.4;0.8;;;;;;;;;;;;;
2021/01/27 04:02:30;;;;;;;0.4;0.4;;;;;;;-2.97;75.5918;938.4473;;;;
2021/01/27 04:04:55;;;;;;;0.9;0.6;;;;;;;-2.96;75.48242;938.4155;;;;
2021/01/27 04:07:21;;;;;;;1.1;0.8;;;;;;;-3.09;75.8457;938.3809;;;;
2021/01/27 04:09:51;;;;;;;0.5;0.5;;;;;;;-3.07;75.58496;938.4597;;;;
2021/01/27 04:12:16;;;;;;;1.4;0.7;;;;;;;-3.16;75.29004;938.4551;;;;
2021/01/27 04:14:46;;;;;;;1.6;0.6;;;;;;;-2.98;74.63867;938.5577;;;;
2021/01/27 04:17:12;;;;;;;0.4;0.4;;;;;;;-3.04;74.26074;938.4771;;;;
2021/01/27 04:19:55;;;;;;;1.2;0.8;;;;;;;-3.01;74.13477;938.3997;;;;
2021/01/27 04:22:20;;;;;;;0.9;0.6;;;;;;;-3.1;74.5293;938.4738;;;;
2021/01/27 04:24:50;;;;;;;0.7;0.7;;;;;;;-3.29;76.08691;938.4497;;;;
2021/01/27 04:27:16;;;;;;;0.7;0.7;;;;;;;-3.41;76.47363;938.4217;;;;
2021/01/27 04:29:48;;;;;;;0.5;0.5;;;;;;;-3.39;76.74121;938.4285;;;;
2021/01/27 04:32:14;;;;;;;1.2;1;;;;;;;-3.39;76.64258;938.2604;;;;
2021/01/27 04:34:39;;;;;;;0.9;0.8;;;;;;;-3.41;76.50781;938.3946;;;;
2021/01/27 04:37:11;;;;;;;1.1;1;;;;;;;-3.39;76.25586;938.3669;;;;
2021/01/27 04:39:40;;;;;;;0.7;0.7;;;;;;;-3.51;75.79199;938.3273;;;;
2021/01/27 04:42:07;;;;;;;1;0.6;;;;;;;-3.58;75.94434;938.3912;;;;
2021/01/27 04:44:36;;;;;;;1;0.8;;;;;;;-3.55;76.15918;938.3591;;;;
2021/01/27 04:47:01;;;;;;;0.8;0.8;;;;;;;-3.61;76.53613;938.3398;;;;
2021/01/27 04:49:27;;;;;;;4.1;1.6;;;;;;;-3.53;76.5293;938.3809;;;;
2021/01/27 04:51:51;;;;;;;2.5;1.6;;;;;;;-3.45;76.50879;938.3803;;;;
2021/01/27 04:54:17;;;;;;;2.1;0.8;;;;;;;-3.36;76.35938;938.4403;;;;
2021/01/27 04:56:42;;;;;;;1.4;1.1;;;;;;;-3.39;76.21289;938.4304;;;;
2021/01/27 04:59:07;;;;;;;1.1;1;;;;;;;-3.39;76.15723;938.407;;;;
2021/01/27 05:01:32;;;;;;;1.2;1.1;;;;;;;-3.41;76.25195;938.4006;;;;
2021/01/27 05:03:57;;;;;;;1.2;1.1;;;;;;;-3.39;76.14453;938.389;;;;
2021/01/27 05:06:22;;;;;;;0.9;0.9;;;;;;;-3.47;76.61621;938.3563;;;;
2021/01/27 05:08:48;;;;;;;1.4;0.8;;;;;;;-3.46;76.89453;938.3483;;;;
2021/01/27 05:11:15;;;;;;;1;1;;;;;;;-3.32;76.63379;938.331;;;;
2021/01/27 05:13:40;;;;;;;0.7;0.7;;;;;;;-3.29;76.42676;938.2771;;;;
2021/01/27 05:16:08;;;;;;;0.9;0.8;;;;;;;-3.33;76.45313;938.242;;;;
2021/01/27 05:18:33;;;;;;;0.8;0.8;;;;;;;-3.48;77.08984;938.3184;;;;
2021/01/27 05:21:03;;;;;;;0.4;0.4;;;;;;;-3.46;77.16992;938.2916;;;;
2021/01/27 05:23:28;;;;;;;0.7;0.7;;;;;;;-3.49;77.49512;938.1985;;;;
2021/01/27 05:25:53;;;;;;;1.6;1.3;;;;;;;-3.56;77.99121;938.2045;;;;
2021/01/27 05:28:21;;;;;;;3.4;1.4;;;;;;;-3.5;78.00293;938.2341;;;;
2021/01/27 05:30:49;;;;;;;3.3;2.4;;;;;;;-3.52;78.1875;938.2065;;;;
2021/01/27 05:33:17;;;;;;;1.4;1.2;;;;;;;-3.49;78.3125;938.0538;;;;
2021/01/27 05:35:44;;;;;;;2.6;1.5;;;;;;;-3.4;78.35352;938.0951;;;;
2021/01/27 05:38:16;;;;;;;0.6;0.6;;;;;;;-3.25;77.89551;938.1252;;;;
2021/01/27 05:40:41;;;;;;;2.6;1;;;;;;;-3.19;77.60547;938.0723;;;;
2021/01/27 05:43:07;;;;;;;0.7;0.7;;;;;;;-3.2;77.52832;937.9656;;;;
2021/01/27 05:45:32;;;;;;;2.1;1.1;;;;;;;-3.19;77.67383;937.9675;;;;
2021/01/27 05:47:57;;;;;;;2.6;2;;;;;;;-3.14;77.88086;938.0109;;;;
2021/01/27 05:50:24;;;;;;;7.7;1.7;;;;;;;-2.99;77.33398;937.9346;;;;
2021/01/27 05:52:49;;;;;;;4.7;3.1;;;;;;;-2.99;77.36719;937.8035;;;;
2021/01/27 05:55:15;;;;;;;5.1;1.8;;;;;;;-3.01;77.20801;937.8237;;;;
2021/01/27 05:57:49;;;;;;;4.1;2.4;;;;;;;-2.99;76.68164;937.7772;;;;
2021/01/27 06:00:32;;;;;;;2.8;1.5;;;;;;;-3.09;76.43164;937.7859;;;;
2021/01/27 06:03:00;;;;;;;3;1;;;;;;;-3.18;75.0459;937.6669;;;;
2021/01/27 06:05:25;;;;;;;6.7;1.6;;;;;;;-3.15;76.15625;937.7067;;;;
2021/01/27 06:07:53;;;;;;;2.7;1.5;;;;;;;-3.27;77.22754;937.5801;;;;
2021/01/27 06:10:20;;;;;;;0.7;0.7;;;;;;;-3.28;74.75;937.5999;;;;
2021/01/27 06:12:45;;;;;;;3;1;;;;;;;-3.17;74.79102;937.6379;;;;
2021/01/27 06:15:12;;;;;;;1.2;1;;;;;;;-3.03;75.85645;937.625;;;;
2021/01/27 06:17:42;;;;;;;3.4;0.8;;;;;;;-3;75.77441;937.5828;;;;
2021/01/27 06:20:14;;;;;;;1.3;1.2;;;;;;;-2.94;75.97266;937.4169;;;;
2021/01/27 06:22:39;;;;;;;0.7;0.7;;;;;;;-2.81;75.65234;937.4314;;;;
2021/01/27 06:25:06;;;;;;;1.1;0.9;;;;;;;-2.86;75.83301;937.464;;;;
2021/01/27 06:27:34;;;;;;;0.8;0.8;;;;;;;-2.82;75.79688;937.485;;;;
2021/01/27 06:29:59;;;;;;;1.6;1.4;;;;;;;-2.83;76.11426;937.4623;;;;
2021/01/27 06:32:24;;;;;;;10.2;2.2;;;;;;;-2.85;76.32129;937.3867;;;;
2021/01/27 06:34:49;;;;;;;3.4;1.6;;;;;;;-2.94;76.6582;937.3322;;;;
2021/01/27 06:37:16;;;;;;;1.4;1.3;;;;;;;-2.76;76.20313;937.384;;;;
2021/01/27 06:39:42;;;;;;;1.9;1.3;;;;;;;-2.68;76.04199;937.4037;;;;
2021/01/27 06:42:06;;;;;;;2.3;1.2;;;;;;;-2.58;75.86133;937.3439;;;;
2021/01/27 06:44:32;;;;;;;2.4;1.7;;;;;;;-2.48;75.68945;937.2247;;;;
2021/01/27 06:46:57;;;;;;;2.3;1;;;;;;;-2.71;74.8623;937.2651;;;;
2021/01/27 06:49:23;;;;;;;1.7;1.6;;;;;;;-2.69;75.12207;937.3087;;;;
2021/01/27 06:51:48;;;;;;;1.6;1.2;;;;;;;-2.63;75.36426;937.2888;;;;
2021/01/27 06:54:14;;;;;;;4.3;2.3;;;;;;;-2.6;75.33789;937.2617;;;;
2021/01/27 06:56:40;;;;;;;2.4;1.7;;;;;;;-2.59;74.50684;937.2542;;;;
2021/01/27 06:59:05;;;;;;;3.4;1.8;;;;;;;-2.63;74.3457;937.1139;;;;
2021/01/27 07:01:31;;;;;;;1;1;;;;;;;-2.61;74.22852;937.1147;;;;
2021/01/27 07:03:57;;;;;;;3.7;1.8;;;;;;;-2.61;73.87402;937.1208;;;;
2021/01/27 07:06:22;;;;;;;3.5;2.2;;;;;;;-2.73;74.30566;937.135;;;;
2021/01/27 07:08:47;;;;;;;1.2;1.1;;;;;;;-2.72;73.04785;937.1925;;;;
2021/01/27 07:11:12;;;;;;;1.4;1.3;;;;;;;-2.63;72.81836;937.1967;;;;
2021/01/27 07:13:38;;;;;;;3.7;1.6;;;;;;;-2.67;72.48926;937.1475;;;;
2021/01/27 07:16:03;;;;;;;5;2.7;;;;;;;-2.63;73.08398;937.0703;;;;
2021/01/27 07:18:29;;;;;;;0.8;0.8;;;;;;;-2.51;72.66309;937.0056;;;;
2021/01/27 07:20:54;;;;;;;1.4;1.2;;;;;;;-2.46;71.17578;936.986;;;;
2021/01/27 07:23:19;;;;;;;5.4;1.1;;;;;;;-2.4;71.88379;937.0214;;;;
2021/01/27 07:25:44;;;;;;;0.5;0.5;;;;;;;-2.27;71.22949;936.9389;;;;
2021/01/27 07:28:10;;;;;;;2.2;1.3;;;;;;;-2.15;71.31641;936.9115;;;;
2021/01/27 07:30:35;;;;;;;1.5;0.8;;;;;;;-2.13;71.1543;936.9279;;;;
2021/01/27 07:33:00;;;;;;;4.1;2.2;;;;;;;-2.04;71.02637;936.9362;;;;
2021/01/27 07:35:26;;;;;;;3.4;1.5;;;;;;;-1.95;70.40918;936.9155;;;;
2021/01/27 07:37:51;;;;;;;2.3;1.5;;;;;;;-2.06;69.23633;936.8575;;;;
2021/01/27 07:40:16;;;;;;;32.6;12.5;;;;;;;-2.16;69.54297;936.8978;;;;
2021/01/27 07:42:42;;;;;;;13;4.8;;;;;;;-2.01;69.96777;936.8817;;;;
2021/01/27 07:45:07;;;;;;;2.4;2.1;;;;;;;-1.81;70.16602;936.8578;;;;
2021/01/27 07:47:32;;;;;;;4.4;2.6;;;;;;;-1.82;70.69629;936.8373;;;;
2021/01/27 07:49:57;;;;;;;2.3;1.7;;;;;;;-1.78;71.04785;936.7514;;;;
2021/01/27 07:52:23;;;;;;;2.7;1.8;;;;;;;-1.77;71.30469;936.7404;;;;
2021/01/27 07:54:48;;;;;;;3.8;2.5;;;;;;;-1.83;71.66016;936.7213;;;;
2021/01/27 07:57:13;;;;;;;3.9;2.5;;;;;;;-1.89;71.74902;936.6697;;;;
2021/01/27 07:59:38;;;;;;;3.9;2.5;;;;;;;-1.78;71.89063;936.5859;;;;
2021/01/27 08:02:04;;;;;;;10.3;3.7;;;;;;;-1.71;71.60254;936.5279;;;;
2021/01/27 08:04:29;;;;;;;3.1;2.3;;;;;;;-1.66;70.5127;936.4244;;;;
2021/01/27 08:06:54;;;;;;;4.1;2.9;;;;;;;-1.59;70.73438;936.4233;;;;
2021/01/27 08:09:21;;;;;;;4.2;2.4;;;;;;;-1.56;70.50586;936.5514;;;;
2021/01/27 08:11:47;;;;;;;4.2;2.2;;;;;;;-1.41;69.82227;936.6219;;;;
2021/01/27 08:14:14;;;;;;;4.8;2.4;;;;;;;-1.33;68.13574;936.5854;;;;
2021/01/27 08:16:40;;;;;;;39.4;18.2;;;;;;;-1.28;66.76563;936.619;;;;
2021/01/27 08:19:04;;;;;;;5.8;3.9;;;;;;;-1.07;68.57813;936.5549;;;;
2021/01/27 08:21:30;;;;;;;4.5;2.3;;;;;;;-0.85;67.94824;936.5333;;;;
2021/01/27 08:23:55;;;;;;;6.9;3.7;;;;;;;-0.7;67.1709;936.4235;;;;
2021/01/27 08:26:20;;;;;;;3.7;2.4;;;;;;;-0.71;67.03711;936.4255;;;;
2021/01/27 08:28:45;;;;;;;3.1;1.7;;;;;;;-0.9;66.00488;936.3658;;;;
2021/01/27 08:31:10;;;;;;;8.4;2.7;;;;;;;-1.1;66.88379;936.5056;;;;
2021/01/27 08:33:35;;;;;;;1.7;1.4;;;;;;;-1.25;66.14941;936.5223;;;;
2021/01/27 08:36:01;;;;;;;3.3;1.8;;;;;;;-1.34;66.33496;936.5262;;;;
2021/01/27 08:38:26;;;;;;;2.2;1.4;;;;;;;-1.47;67.27051;936.5257;;;;
2021/01/27 08:40:52;;;;;;;0.8;0.8;;;;;;;-1.43;66.7998;936.5771;;;;
2021/01/27 08:43:17;;;;;;;2.1;1.9;;;;;;;-1.46;66.57129;936.4972;;;;
2021/01/27 08:45:46;;;;;;;4.6;1.6;;;;;;;-1.17;67.01758;936.5617;;;;
2021/01/27 08:48:08;;;;;;;2.8;1.6;;;;;;;-1.1;66.91797;936.57;;;;
2021/01/27 08:50:33;;;;;;;2.7;1.9;;;;;;;-1;67.25488;936.5466;;;;
2021/01/27 08:52:58;;;;;;;3;2;;;;;;;-0.9;67.67285;936.5909;;;;
2021/01/27 08:55:26;;;;;;;4.4;1.6;;;;;;;-0.85;66.70117;936.5293;;;;
2021/01/27 08:57:51;;;;;;;3.1;1.7;;;;;;;-0.73;66.37695;936.4361;;;;
2021/01/27 09:00:16;;;;;;;1.6;1.3;;;;;;;-0.5;66.16797;936.4741;;;;
2021/01/27 09:02:41;;;;;;;2.6;2.2;;;;;;;-0.37;64.88477;936.4598;;;;
2021/01/27 09:05:09;;;;;;;1.6;1.4;;;;;;;-0.21;64.7334;936.441;;;;
2021/01/27 09:07:34;;;;;;;6.7;3.9;;;;;;;-0.15;66.83496;936.4683;;;;
2021/01/27 09:09:59;;;;;;;6.4;2.9;;;;;;;-0.03;65.30566;936.425;;;;
2021/01/27 09:12:25;;;;;;;4.2;2.3;;;;;;;0.14;63.86133;936.3524;;;;
2021/01/27 09:14:50;;;;;;;5.2;2.5;;;;;;;0.24;63.22949;936.4462;;;;
2021/01/27 09:17:19;;;;;;;11.8;2.5;;;;;;;0.12;62.16504;936.3625;;;;
2021/01/27 09:19:45;;;;;;;4.6;2.6;;;;;;;-0.05;62.68652;936.2256;;;;
2021/01/27 09:22:10;;;;;;;2.1;1.4;;;;;;;0.03;63.80957;936.3497;;;;
2021/01/27 09:24:35;;;;;;;6.5;2.7;;;;;;;0.08;63.6084;936.3077;;;;
2021/01/27 09:27:00;;;;;;;5.6;2.5;;;;;;;0.28;63.68262;936.2714;;;;
2021/01/27 09:29:26;;;;;;;2.1;1.8;;;;;;;0.32;62.70703;936.2573;;;;
2021/01/27 09:31:51;;;;;;;4.4;2.4;;;;;;;0.54;63.18652;936.2494;;;;
2021/01/27 09:34:19;;;;;;;2.8;2.5;;;;;;;0.68;61.85547;936.264;;;;
2021/01/27 09:36:44;;;;;;;2;1.7;;;;;;;0.94;61.10156;936.2383;;;;
2021/01/27 09:39:09;;;;;;;6.3;2.5;;;;;;;1.23;60.19434;936.3051;;;;
2021/01/27 09:41:35;;;;;;;7.4;3.4;;;;;;;1.26;59.07031;936.2648;;;;
2021/01/27 09:44:02;;;;;;;4.5;2.1;;;;;;;1.4;59.60254;936.1958;;;;
2021/01/27 09:46:27;;;;;;;5.5;3.3;;;;;;;1.53;57.53125;936.2319;;;;
2021/01/27 09:48:55;;;;;;;3;1.9;;;;;;;1.62;56.51465;936.2045;;;;
2021/01/27 09:51:20;;;;;;;7;3.5;;;;;;;1.52;56.16602;936.3281;;;;
2021/01/27 09:53:45;;;;;;;10.5;4.1;;;;;;;1.51;57.77441;936.2981;;;;
2021/01/27 09:56:12;;;;;;;1.8;1.4;;;;;;;1.5;57.60645;936.1746;;;;
2021/01/27 09:58:37;;;;;;;1.8;1.1;;;;;;;1.38;55.90137;936.1747;;;;
2021/01/27 10:01:02;;;;;;;1.4;1.2;;;;;;;1.3;57.34277;936.3817;;;;
2021/01/27 10:03:27;;;;;;;2.2;1.1;;;;;;;1.2;57.42969;936.2997;;;;
2021/01/27 10:05:53;;;;;;;1.2;0.9;;;;;;;1.24;58.10645;936.2859;;;;
2021/01/27 10:08:19;;;;;;;1.7;1.2;;;;;;;1.42;57.54883;936.2589;;;;
2021/01/27 10:10:44;;;;;;;5.2;2.3;;;;;;;1.6;57.8418;936.2621;;;;
2021/01/27 10:13:11;;;;;;;5.3;1.2;;;;;;;1.7;55.30566;936.238;;;;
2021/01/27 10:15:38;;;;;;;1.6;0.8;;;;;;;1.79;54.60156;936.199;;;;
2021/01/27 10:18:03;;;;;;;1.3;0.9;;;;;;;1.71;54.43555;936.1836;;;;
2021/01/27 10:20:28;;;;;;;3.5;1.8;;;;;;;1.83;55.18848;936.1774;;;;
2021/01/27 10:22:53;;;;;;;3.2;1.2;;;;;;;1.59;54.63281;936.0942;;;;
2021/01/27 10:25:18;;;;;;;1.6;1.3;;;;;;;1.85;55.97461;936.051;;;;
2021/01/27 10:27:45;;;;;;;1.2;1.1;;;;;;;1.87;54.67969;936.0128;;;;
2021/01/27 10:30:09;;;;;;;2.3;1.3;;;;;;;1.62;54.02148;935.9669;;;;
2021/01/27 10:32:34;;;;;;;1.5;1;;;;;;;1.78;57.07324;935.8819;;;;
2021/01/27 10:35:01;;;;;;;1;0.6;;;;;;;2.06;56.25977;935.8858;;;;
2021/01/27 10:37:25;;;;;;;1;0.8;;;;;;;2.07;53.9668;935.8531;;;;
2021/01/27 10:39:50;;;;;;;2.4;1.6;;;;;;;2.27;52.40137;935.8465;;;;
2021/01/27 10:42:15;;;;;;;1.9;1;;;;;;;2.09;52.88477;935.8022;;;;
2021/01/27 10:44:41;;;;;;;1.5;0.7;;;;;;;1.83;53.48926;935.7609;;;;
2021/01/27 10:47:06;;;;;;;0.9;0.8;;;;;;;1.7;54.85938;935.7054;;;;
2021/01/27 10:49:32;;;;;;;0.6;0.6;;;;;;;1.64;53.15137;935.7385;;;;
2021/01/27 10:51:57;;;;;;;0.6;0.6;;;;;;;1.64;53.90039;935.7015;;;;
2021/01/27 10:54:22;;;;;;;0.5;0.5;;;;;;;1.61;52.67871;935.6461;;;;
2021/01/27 10:56:51;;;;;;;0.4;0.4;;;;;;;1.57;52.48242;935.7148;;;;
2021/01/27 10:59:16;;;;;;;1.7;0.8;;;;;;;1.86;53.80469;935.7679;;;;
2021/01/27 11:01:41;;;;;;;0.4;0.4;;;;;;;2.13;53.44727;935.7045;;;;
2021/01/27 11:04:06;;;;;;;0.8;0.6;;;;;;;2.09;54.19336;935.6465;;;;
2021/01/27 11:06:31;;;;;;;0.5;0.2;;;;;;;2.13;54.64551;935.6182;;;;
2021/01/27 11:08:56;;;;;;;0.6;0.6;;;;;;;2.37;55.58301;935.6481;;;;
2021/01/27 11:11:24;;;;;;;0.5;0.3;;;;;;;2.65;52.70605;935.6225;;;;
2021/01/27 11:13:49;;;;;;;0.3;0.3;;;;;;;2.85;50.84668;935.5416;;;;
2021/01/27 11:16:16;;;;;;;0.5;0.4;;;;;;;2.94;51.94629;935.5644;;;;
2021/01/27 11:18:41;;;;;;;0.6;0.5;;;;;;;2.92;52.25781;935.5549;;;;
2021/01/27 11:21:07;;;;;;;0.4;0.4;;;;;;;3.09;52.14453;935.5861;;;;
2021/01/27 11:23:32;;;;;;;0.7;0.3;;;;;;;3.23;50.84766;935.601;;;;
2021/01/27 11:25:58;;;;;;;2;0.7;;;;;;;3.32;50.27441;935.5983;;;;
2021/01/27 11:28:24;;;;;;;0.7;0.7;;;;;;;3.31;48.47754;935.55;;;;
2021/01/27 11:30:50;;;;;;;1;0.9;;;;;;;3.26;51.33496;935.5446;;;;
2021/01/27 11:33:15;;;;;;;0.6;0.6;;;;;;;3.32;51.4209;935.475;;;;
2021/01/27 11:35:40;;;;;;;0.4;0.4;;;;;;;3.43;51.73633;935.4897;;;;
2021/01/27 11:38:05;;;;;;;0.6;0.6;;;;;;;3.34;50.25488;935.5472;;;;
2021/01/27 11:40:33;;;;;;;2.4;0.9;;;;;;;3.3;49.7002;935.5804;;;;
2021/01/27 11:42:58;;;;;;;1.1;0.7;;;;;;;3.27;51.30176;935.5212;;;;
2021/01/27 11:45:23;;;;;;;1;0.9;;;;;;;3.14;49.86035;935.5096;;;;
2021/01/27 11:47:48;;;;;;;1.2;0.8;;;;;;;3.08;50.11133;935.4981;;;;
2021/01/27 11:50:15;;;;;;;1.2;0.8;;;;;;;3.08;48.89941;935.4613;;;;
2021/01/27 11:52:40;;;;;;;1.3;0.9;;;;;;;2.98;48.91113;935.4776;;;;
2021/01/27 11:55:09;;;;;;;2.1;1.3;;;;;;;2.98;50.18945;935.4781;;;;
2021/01/27 11:57:39;;;;;;;2.4;1.7;;;;;;;3.01;51.86523;935.5148;;;;
2021/01/27 12:00:04;;;;;;;4.6;1.8;;;;;;;2.91;52.23438;935.5231;;;;
2021/01/27 12:02:31;;;;;;;1.1;1;;;;;;;2.69;53.10449;935.5022;;;;
2021/01/27 12:04:56;;;;;;;1.5;1.3;;;;;;;2.77;53.98828;935.4977;;;;
2021/01/27 12:07:22;;;;;;;2;1.2;;;;;;;2.83;54.55664;935.5543;;;;
2021/01/27 12:09:48;;;;;;;2.8;1.4;;;;;;;2.95;53.5625;935.5031;;;;
2021/01/27 12:12:15;;;;;;;2;1.2;;;;;;;3.04;53.45117;935.5215;;;;
2021/01/27 12:14:40;;;;;;;2.5;1.6;;;;;;;2.83;54.91504;935.5698;;;;
2021/01/27 12:17:05;;;;;;;1.3;1.2;;;;;;;2.9;53.56641;935.5589;;;;
2021/01/27 12:19:35;;;;;;;3;1.7;;;;;;;2.87;53.18359;935.6053;;;;
2021/01/27 12:22:00;;;;;;;2.3;1.1;;;;;;;2.99;54.44336;935.6022;;;;
2021/01/27 12:24:28;;;;;;;0.8;0.7;;;;;;;2.96;56.77344;935.6766;;;;
2021/01/27 12:26:53;;;;;;;3.4;1.1;;;;;;;3.07;54.33984;935.683;;;;
2021/01/27 12:29:22;;;;;;;1.7;0.9;;;;;;;3.04;54.22559;935.6647;;;;
2021/01/27 12:31:45;;;;;;;2.6;1.2;;;;;;;3.05;53.18262;935.6704;;;;
2021/01/27 12:34:13;;;;;;;0.9;0.7;;;;;;;3.13;53.41699;935.6605;;;;
2021/01/27 12:36:43;;;;;;;1.5;1;;;;;;;2.94;53.37012;935.7011;;;;
2021/01/27 12:39:06;;;;;;;1.7;1.2;;;;;;;2.72;56.25684;935.6886;;;;
2021/01/27 12:41:32;;;;;;;3.1;0.8;;;;;;;2.91;55.35254;935.7188;;;;
2021/01/27 12:43:57;;;;;;;1.3;0.9;;;;;;;2.79;57.23145;935.7357;;;;
2021/01/27 12:46:29;;;;;;;1.1;1;;;;;;;2.47;60.28125;935.7302;;;;
2021/01/27 12:48:55;;;;;;;1.2;1.1;;;;;;;2.35;61.6416;935.7302;;;;
2021/01/27 12:51:20;;;;;;;1.2;0.7;;;;;;;2.42;61.85254;935.7219;;;;
2021/01/27 12:53:47;;;;;;;1.3;1;;;;;;;2.38;63.53906;935.6652;;;;
2021/01/27 12:56:12;;;;;;;1.2;1;;;;;;;2.34;63.54492;935.6624;;;;
2021/01/27 12:58:38;;;;;;;0.6;0.6;;;;;;;2.33;63.37598;935.7058;;;;
2021/01/27 13:01:03;;;;;;;2.8;0.8;;;;;;;2.2;64.66699;935.6883;;;;
2021/01/27 13:03:31;;;;;;;1.9;0.8;;;;;;;2.21;65.14941;935.5956;;;;
2021/01/27 13:05:56;;;;;;;0.7;0.6;;;;;;;1.74;67.99707;935.6552;;;;
2021/01/27 13:08:21;;;;;;;0.9;0.9;;;;;;;1.29;69.65527;935.6306;;;;
2021/01/27 13:10:46;;;;;;;2.3;1.3;;;;;;;1.76;68.70313;935.5715;;;;
2021/01/27 13:13:19;;;;;;;0.7;0.6;;;;;;;1.71;69.03027;935.5854;;;;
2021/01/27 13:15:50;;;;;;;0.2;0.2;;;;;;;1.62;69.45313;935.6294;;;;
2021/01/27 13:18:17;;;;;;;1.4;1;;;;;;;1.67;69.57227;935.5912;;;;
2021/01/27 13:20:44;;;;;;;0.9;0.8;;;;;;;1.83;69.6543;935.6666;;;;
2021/01/27 13:23:12;;;;;;;3.4;0.9;;;;;;;1.63;71.04395;935.6423;;;;
2021/01/27 13:25:42;;;;;;;1.3;0.7;;;;;;;1.38;72.16406;935.6188;;;;
2021/01/27 13:28:10;;;;;;;0.7;0.7;;;;;;;1.41;72.53711;935.5165;;;;
2021/01/27 13:30:37;;;;;;;14.5;9.3;;;;;;;1.35;73.47754;935.5148;;;;
2021/01/27 13:33:03;;;;;;;2.8;1.3;;;;;;;1.66;73.0166;935.4684;;;;
2021/01/27 13:35:28;;;;;;;0.6;0.6;;;;;;;1.63;72.14941;935.3574;;;;
2021/01/27 13:37:54;;;;;;;1.5;0.6;;;;;;;1.36;72.7959;935.4106;;;;
2021/01/27 13:40:19;;;;;;;0.5;0.5;;;;;;;1.23;73.91211;935.3192;;;;
2021/01/27 13:42:47;;;;;;;1.8;1;;;;;;;1.37;74.16113;935.3209;;;;
2021/01/27 13:45:12;;;;;;;3;1.3;;;;;;;1.45;74.4082;935.3555;;;;
2021/01/27 13:47:39;;;;;;;1.3;1;;;;;;;1.34;75.02832;935.3189;;;;
2021/01/27 13:50:02;;;;;;;3.1;1;;;;;;;1.31;75.9043;935.3177;;;;
2021/01/27 13:52:30;;;;;;;1.4;1.3;;;;;;;1.45;75.74023;935.3793;;;;
2021/01/27 13:54:56;;;;;;;3.8;0.8;;;;;;;1.52;75.2041;935.3356;;;;
2021/01/27 13:57:21;;;;;;;0.9;0.9;;;;;;;1.41;76.05664;935.365;;;;
2021/01/27 13:59:47;;;;;;;1;0.9;;;;;;;0.94;76.30859;935.2385;;;;
2021/01/27 14:02:13;;;;;;;1;0.8;;;;;;;0.73;77.41895;935.3113;;;;
2021/01/27 14:04:38;;;;;;;0.8;0.8;;;;;;;0.92;77.72266;935.3137;;;;
2021/01/27 14:07:03;;;;;;;0.5;0.5;;;;;;;0.73;77.72168;935.2291;;;;
2021/01/27 14:09:28;;;;;;;1.6;1.2;;;;;;;0.45;79.04004;935.332;;;;
2021/01/27 14:11:54;;;;;;;1.5;1.3;;;;;;;0.22;80.87012;935.3183;;;;
2021/01/27 14:14:21;;;;;;;1.5;0.9;;;;;;;0.38;80.77734;935.2958;;;;
2021/01/27 14:16:46;;;;;;;1.1;1;;;;;;;0.36;80.65039;935.3028;;;;
2021/01/27 14:19:12;;;;;;;1;0.8;;;;;;;0.36;81.26367;935.3022;;;;
2021/01/27 14:21:41;;;;;;;1.1;0.9;;;;;;;0.48;81.0752;935.2753;;;;
2021/01/27 14:24:06;;;;;;;3.3;1.5;;;;;;;0.52;81.00488;935.293;;;;
2021/01/27 14:26:35;;;;;;;2.3;1.4;;;;;;;0.67;80.99023;935.2454;;;;
2021/01/27 14:29:00;;;;;;;2.8;1.8;;;;;;;0.5;81.28027;935.2271;;;;
2021/01/27 14:31:26;;;;;;;2.8;1.9;;;;;;;0.46;81.87598;935.173;;;;
2021/01/27 14:33:51;;;;;;;1.6;1.4;;;;;;;0.5;81.74902;935.2255;;;;
2021/01/27 14:36:17;;;;;;;2.5;1.6;;;;;;;0.52;82.03125;935.1894;;;;
2021/01/27 14:38:42;;;;;;;8.6;1.4;;;;;;;0.28;82.11914;935.1627;;;;
2021/01/27 14:41:08;;;;;;;1.5;1.4;;;;;;;0.25;82.85938;935.0956;;;;
2021/01/27 14:43:34;;;;;;;9.1;1.7;;;;;;;0.49;82.8623;935.012;;;;
2021/01/27 14:45:59;;;;;;;3.1;1.8;;;;;;;0.52;82.57813;934.9903;;;;
2021/01/27 14:48:24;;;;;;;3.6;2.2;;;;;;;0.54;82.53711;934.9277;;;;
2021/01/27 14:50:52;;;;;;;2.1;1.8;;;;;;;0.51;82.33105;934.9006;;;;
2021/01/27 14:53:17;;;;;;;3.6;2.4;;;;;;;0.44;82.23828;934.8289;;;;
2021/01/27 14:55:42;;;;;;;3.2;2.5;;;;;;;0.4;82.75391;934.845;;;;
2021/01/27 14:58:07;;;;;;;2.1;1.4;;;;;;;0.45;82.46387;934.7997;;;;
2021/01/27 15:00:42;;;;;;;6;5;;;;;;;0.36;82.8252;934.7516;;;;
2021/01/27 15:03:09;;;;;;;1.4;1;;;;;;;0.32;82.81738;934.7756;;;;
2021/01/27 15:05:34;;;;;;;2.2;0.8;;;;;;;0.44;82.40625;934.7592;;;;
2021/01/27 15:08:00;;;;;;;1.6;1.3;;;;;;;0.5;82.0166;934.6076;;;;
2021/01/27 15:10:25;;;;;;;3.9;1.8;;;;;;;0.63;81.65039;934.6481;;;;
2021/01/27 15:12:52;;;;;;;3.9;2.3;;;;;;;0.87;81.08203;934.6767;;;;
2021/01/27 15:15:17;;;;;;;3.3;2.1;;;;;;;0.92;80.64648;934.7266;;;;
2021/01/27 15:17:43;;;;;;;3;1.5;;;;;;;0.85;80.79004;934.6761;;;;
2021/01/27 15:20:10;;;;;;;1.9;1.2;;;;;;;0.89;80.45313;934.6409;;;;
2021/01/27 15:22:35;;;;;;;4.9;1.6;;;;;;;0.84;80.26367;934.5989;;;;
2021/01/27 15:25:00;;;;;;;2.9;1.5;;;;;;;0.88;80.18164;934.5112;;;;
2021/01/27 15:27:25;;;;;;;1.6;1.2;;;;;;;0.88;79.69043;934.5566;;;;
2021/01/27 15:29:51;;;;;;;6.9;1.2;;;;;;;0.82;79.41211;934.483;;;;
2021/01/27 15:32:16;;;;;;;8.6;4;;;;;;;0.78;79.60449;934.3797;;;;
2021/01/27 15:34:41;;;;;;;7.6;3.7;;;;;;;0.69;79.84277;934.4303;;;;
2021/01/27 15:37:06;;;;;;;7.3;4.4;;;;;;;0.63;79.78809;934.414;;;;